createdAt,value
2022-11-15T00:01:51.991Z,61.79
2022-11-15T00:04:37.742Z,62.00
2022-11-15T00:07:53.704Z,62.08
2022-11-15T00:10:28.937Z,62.22
2022-11-15T00:13:14.557Z,62.51
2022-11-15T00:16:02.349Z,62.41
2022-11-15T00:18:50.811Z,62.42
2022-11-15T00:21:36.939Z,62.20
2022-11-15T00:24:22.610Z,62.67
2022-11-15T00:27:08.533Z,62.88
2022-11-15T00:29:54.369Z,62.87
2022-11-15T00:32:40.552Z,63.28
2022-11-15T00:35:26.380Z,63.31
2022-11-15T00:38:12.172Z,63.35
2022-11-15T00:40:57.793Z,63.43
2022-11-15T00:43:44.685Z,63.31
2022-11-15T00:46:30.749Z,63.13
2022-11-15T00:49:16.190Z,63.11
2022-11-15T00:52:01.625Z,63.27
2022-11-15T00:54:47.276Z,63.73
2022-11-15T00:57:32.843Z,63.87
2022-11-15T01:00:18.594Z,63.69
2022-11-15T01:03:04.399Z,63.62
2022-11-15T01:05:49.789Z,63.38
2022-11-15T01:08:35.577Z,63.11
2022-11-15T01:11:21.221Z,63.07
2022-11-15T01:14:06.728Z,62.78
2022-11-15T01:16:52.174Z,62.52
2022-11-15T01:19:37.691Z,62.66
2022-11-15T01:22:23.717Z,62.58
2022-11-15T01:25:09.103Z,62.62
2022-11-15T01:27:54.823Z,63.00
2022-11-15T01:30:40.441Z,62.62
2022-11-15T01:33:26.367Z,62.53
2022-11-15T01:36:23.570Z,62.51
2022-11-15T01:39:09.514Z,63.07
2022-11-15T01:41:55.869Z,63.62
2022-11-15T01:44:51.782Z,63.21
2022-11-15T01:47:41.998Z,63.33
2022-11-15T01:50:32.694Z,63.61
2022-11-15T01:53:21.394Z,63.63
2022-11-15T01:56:11.438Z,63.65
2022-11-15T01:58:59.971Z,63.82
2022-11-15T02:01:46.146Z,64.03
2022-11-15T02:04:36.457Z,63.91
2022-11-15T02:07:23.824Z,64.43
2022-11-15T02:10:19.303Z,64.32
2022-11-15T02:13:05.075Z,64.68
2022-11-15T02:16:36.956Z,64.70
2022-11-15T02:19:33.698Z,64.52
2022-11-15T02:23:03.986Z,64.48
2022-11-15T02:26:08.584Z,64.43
2022-11-15T02:29:11.424Z,64.68
2022-11-15T02:32:05.072Z,64.77
2022-11-15T02:35:03.381Z,64.88
2022-11-15T02:38:16.790Z,64.79
2022-11-15T02:41:18.393Z,64.59
2022-11-15T02:44:40.393Z,64.40
2022-11-15T02:47:30.491Z,64.52
2022-11-15T02:50:21.583Z,64.59
2022-11-15T02:53:08.694Z,64.37
2022-11-15T02:55:56.127Z,64.76
2022-11-15T02:59:08.670Z,64.73
2022-11-15T03:02:24.721Z,65.09
2022-11-15T03:05:19.135Z,64.81
2022-11-15T03:08:46.596Z,64.71
2022-11-15T03:11:42.678Z,64.57
2022-11-15T03:14:41.308Z,64.63
2022-11-15T03:17:37.269Z,64.58
2022-11-15T03:20:22.975Z,64.57
2022-11-15T03:23:12.153Z,64.70
2022-11-15T03:26:01.399Z,64.80
2022-11-15T03:29:06.279Z,64.88
2022-11-15T03:32:00.174Z,64.30
2022-11-15T03:35:03.049Z,64.29
2022-11-15T03:38:17.082Z,64.36
2022-11-15T03:41:11.070Z,64.51
2022-11-15T03:44:53.274Z,64.61
2022-11-15T03:48:00.267Z,64.72
2022-11-15T03:50:47.474Z,64.59
2022-11-15T03:53:33.631Z,64.79
2022-11-15T03:56:19.567Z,64.67
2022-11-15T03:59:05.369Z,64.72
2022-11-15T04:01:50.860Z,64.82
2022-11-15T04:04:36.212Z,64.70
2022-11-15T04:07:21.719Z,64.59
2022-11-15T04:10:09.220Z,64.38
2022-11-15T04:12:54.824Z,64.36
2022-11-15T04:15:40.248Z,64.66
2022-11-15T04:18:25.833Z,64.54
2022-11-15T04:21:29.965Z,64.58
2022-11-15T04:24:15.337Z,64.36
2022-11-15T04:27:01.294Z,64.05
2022-11-15T04:29:46.829Z,64.45
2022-11-15T04:32:32.143Z,64.50
2022-11-15T04:35:17.707Z,64.43
2022-11-15T04:38:05.870Z,64.50
2022-11-15T04:40:51.491Z,64.34
2022-11-15T04:43:37.102Z,64.33
2022-11-15T04:46:23.598Z,64.43
2022-11-15T04:49:09.171Z,64.35
2022-11-15T04:51:54.574Z,64.23
2022-11-15T04:54:39.906Z,64.27
2022-11-15T04:57:25.622Z,64.31
2022-11-15T05:00:14.547Z,64.18
2022-11-15T05:03:18.875Z,64.12
2022-11-15T05:06:04.668Z,64.16
2022-11-15T05:08:50.273Z,64.39
2022-11-15T05:11:35.975Z,64.24
2022-11-15T05:14:21.507Z,64.05
2022-11-15T05:17:06.819Z,64.12
2022-11-15T05:19:52.994Z,64.11
2022-11-15T05:22:38.787Z,64.12
2022-11-15T05:25:24.548Z,64.31
2022-11-15T05:28:10.227Z,64.01
2022-11-15T05:31:09.999Z,63.82
2022-11-15T05:33:57.511Z,63.89
2022-11-15T05:36:46.683Z,63.99
2022-11-15T05:39:32.191Z,63.94
2022-11-15T05:42:18.518Z,63.92
2022-11-15T05:45:07.961Z,64.06
2022-11-15T05:47:55.736Z,64.03
2022-11-15T05:50:44.650Z,64.14
2022-11-15T05:53:31.957Z,64.12
2022-11-15T05:56:18.013Z,63.94
2022-11-15T05:59:04.327Z,64.02
2022-11-15T06:01:50.400Z,64.15
2022-11-15T06:04:36.309Z,63.95
2022-11-15T06:07:22.157Z,64.45
2022-11-15T06:10:09.208Z,64.45
2022-11-15T06:13:03.925Z,64.12
2022-11-15T06:15:49.841Z,64.03
2022-11-15T06:18:36.321Z,63.99
2022-11-15T06:21:22.116Z,63.91
2022-11-15T06:24:08.563Z,64.32
2022-11-15T06:26:54.598Z,64.10
2022-11-15T06:29:40.035Z,64.14
2022-11-15T06:32:26.260Z,63.91
2022-11-15T06:35:12.455Z,63.85
2022-11-15T06:38:08.373Z,63.89
2022-11-15T06:40:53.868Z,63.95
2022-11-15T06:43:40.828Z,63.99
2022-11-15T06:46:26.455Z,63.71
2022-11-15T06:49:11.841Z,63.80
2022-11-15T06:51:57.140Z,63.57
2022-11-15T06:54:42.714Z,63.46
2022-11-15T06:57:28.320Z,63.65
2022-11-15T07:00:14.664Z,63.65
2022-11-15T07:03:03.714Z,63.54
2022-11-15T07:05:55.456Z,64.03
2022-11-15T07:08:42.759Z,63.55
2022-11-15T07:11:28.530Z,63.42
2022-11-15T07:14:14.012Z,62.91
2022-11-15T07:16:59.472Z,62.79
2022-11-15T07:19:44.881Z,62.72
2022-11-15T07:22:30.434Z,62.96
2022-11-15T07:25:15.951Z,62.67
2022-11-15T07:28:02.112Z,62.31
2022-11-15T07:30:47.917Z,62.44
2022-11-15T07:33:34.160Z,62.19
2022-11-15T07:36:20.152Z,62.11
2022-11-15T07:39:05.597Z,62.00
2022-11-15T07:42:10.877Z,61.69
2022-11-15T07:44:57.274Z,61.91
2022-11-15T07:47:47.770Z,61.32
2022-11-15T07:50:33.495Z,60.94
2022-11-15T07:53:19.600Z,61.21
2022-11-15T07:56:08.664Z,60.88
2022-11-15T07:58:54.309Z,60.56
2022-11-15T08:01:39.701Z,60.38
2022-11-15T08:04:25.670Z,59.63
2022-11-15T08:07:11.205Z,59.45
2022-11-15T08:09:57.451Z,59.33
2022-11-15T08:12:43.407Z,59.33
2022-11-15T08:15:29.676Z,59.20
2022-11-15T08:18:17.771Z,59.27
2022-11-15T08:21:04.073Z,58.62
2022-11-15T08:23:49.598Z,58.57
2022-11-15T08:26:35.301Z,58.42
2022-11-15T08:29:20.919Z,58.62
2022-11-15T08:32:06.578Z,58.38
2022-11-15T08:34:52.776Z,58.06
2022-11-15T08:37:38.391Z,58.11
2022-11-15T08:40:24.299Z,57.23
2022-11-15T08:43:10.373Z,57.36
2022-11-15T08:46:00.119Z,57.13
2022-11-15T08:48:46.213Z,56.72
2022-11-15T08:51:31.611Z,56.34
2022-11-15T08:54:17.265Z,56.10
2022-11-15T08:57:03.229Z,55.95
2022-11-15T08:59:48.621Z,56.18
2022-11-15T09:02:34.224Z,55.84
2022-11-15T09:05:19.897Z,55.83
2022-11-15T09:08:25.035Z,55.68
2022-11-15T09:11:12.072Z,55.42
2022-11-15T09:13:57.857Z,55.67
2022-11-15T09:16:43.385Z,55.52
2022-11-15T09:19:28.994Z,55.24
2022-11-15T09:22:14.618Z,55.03
2022-11-15T09:24:59.959Z,54.69
2022-11-15T09:27:45.515Z,54.40
2022-11-15T09:30:30.984Z,54.17
2022-11-15T09:33:16.752Z,54.14
2022-11-15T09:36:05.774Z,53.81
2022-11-15T09:38:51.460Z,53.58
2022-11-15T09:42:11.874Z,53.69
2022-11-15T09:45:21.866Z,53.27
2022-11-15T09:48:34.243Z,53.03
2022-11-15T09:51:36.125Z,53.15
2022-11-15T09:54:45.479Z,52.98
2022-11-15T09:57:19.457Z,52.67
2022-11-15T09:59:50.300Z,52.45
2022-11-15T10:02:48.991Z,52.33
2022-11-15T10:05:23.415Z,52.50
2022-11-15T10:08:04.304Z,51.97
2022-11-15T10:10:49.303Z,51.66
2022-11-15T10:13:30.428Z,51.63
2022-11-15T10:16:31.500Z,51.91
2022-11-15T10:19:39.750Z,51.88
2022-11-15T10:22:27.457Z,51.40
2022-11-15T10:25:20.749Z,51.46
2022-11-15T10:28:18.531Z,50.93
2022-11-15T10:30:52.678Z,50.81
2022-11-15T10:33:40.163Z,50.76
2022-11-15T10:36:10.819Z,50.98
2022-11-15T10:38:50.262Z,51.06
2022-11-15T10:41:21.390Z,51.24
2022-11-15T10:44:24.204Z,51.06
2022-11-15T10:46:57.663Z,51.28
2022-11-15T10:49:30.765Z,50.66
2022-11-15T10:52:12.944Z,49.52
2022-11-15T10:55:17.790Z,47.61
2022-11-15T10:57:56.860Z,46.25
2022-11-15T11:00:30.385Z,44.79
2022-11-15T11:02:57.955Z,43.50
2022-11-15T11:05:42.525Z,43.12
2022-11-15T11:08:13.121Z,41.94
2022-11-15T11:11:01.891Z,40.82
2022-11-15T11:13:34.316Z,39.18
2022-11-15T11:16:16.431Z,36.59
2022-11-15T11:19:22.732Z,35.34
2022-11-15T11:22:32.877Z,33.41
2022-11-15T11:25:55.527Z,32.71
2022-11-15T11:28:31.706Z,32.97
2022-11-15T11:31:33.797Z,32.23
2022-11-15T11:34:42.036Z,31.25
2022-11-15T11:37:48.823Z,29.78
2022-11-15T11:40:31.770Z,29.14
2022-11-15T11:43:55.463Z,28.55
2022-11-15T11:46:50.731Z,28.03
2022-11-15T11:49:47.142Z,27.49
2022-11-15T11:52:28.112Z,27.88
2022-11-15T11:55:31.465Z,28.32
2022-11-15T11:58:23.182Z,27.68
2022-11-15T12:01:17.379Z,27.27
2022-11-15T12:03:57.983Z,27.04
2022-11-15T12:06:41.565Z,27.18
2022-11-15T12:09:27.848Z,26.60
2022-11-15T12:12:35.040Z,26.78
2022-11-15T12:15:18.305Z,26.31
2022-11-15T12:17:46.635Z,26.64
2022-11-15T12:20:20.012Z,27.33
2022-11-15T12:23:37.456Z,27.15
2022-11-15T12:26:19.198Z,26.62
2022-11-15T12:29:07.001Z,26.26
2022-11-15T12:31:35.208Z,25.83
2022-11-15T12:34:20.958Z,25.85
2022-11-15T12:36:50.406Z,26.12
2022-11-15T12:39:18.915Z,25.34
2022-11-15T12:42:05.897Z,25.50
2022-11-15T12:44:32.929Z,25.73
2022-11-15T12:47:06.304Z,25.55
2022-11-15T12:49:36.067Z,25.52
2022-11-15T12:52:03.045Z,26.53
2022-11-15T12:54:42.164Z,27.07
2022-11-15T12:57:09.270Z,27.07
2022-11-15T13:00:26.521Z,26.24
2022-11-15T13:03:19.303Z,26.33
2022-11-15T13:05:46.295Z,25.90
2022-11-15T13:08:38.488Z,25.37
2022-11-15T13:11:45.237Z,25.37
2022-11-15T13:14:43.451Z,25.23
2022-11-15T13:17:44.752Z,25.89
2022-11-15T13:20:17.481Z,26.49
2022-11-15T13:23:02.039Z,26.68
2022-11-15T13:26:10.344Z,26.85
2022-11-15T13:28:51.890Z,26.89
2022-11-15T13:31:37.232Z,27.29
2022-11-15T13:37:23.360Z,28.25
2022-11-15T13:39:51.052Z,27.97
2022-11-15T13:42:22.386Z,28.26
2022-11-15T13:45:01.821Z,27.99
2022-11-15T13:47:30.828Z,27.38
2022-11-15T13:50:02.246Z,27.31
2022-11-15T13:52:41.509Z,27.86
2022-11-15T13:55:22.768Z,28.89
2022-11-15T13:57:58.048Z,29.23
2022-11-15T14:00:35.226Z,28.74
2022-11-15T14:03:26.675Z,30.01
2022-11-15T14:06:16.367Z,32.59
2022-11-15T14:09:10.936Z,35.65
2022-11-15T14:11:50.075Z,38.25
2022-11-15T14:14:17.195Z,39.72
2022-11-15T14:16:56.239Z,40.79
2022-11-15T14:19:26.017Z,42.56
2022-11-15T14:22:23.266Z,43.77
2022-11-15T14:25:14.667Z,44.75
2022-11-15T14:27:44.705Z,45.26
2022-11-15T14:30:17.309Z,45.66
2022-11-15T14:32:51.093Z,46.31
2022-11-15T14:35:21.702Z,46.57
2022-11-15T14:37:49.541Z,46.77
2022-11-15T14:40:20.793Z,47.26
2022-11-15T14:42:50.950Z,47.73
2022-11-15T14:45:21.702Z,48.53
2022-11-15T14:47:49.090Z,49.11
2022-11-15T14:50:21.411Z,49.52
2022-11-15T14:52:49.657Z,49.65
2022-11-15T14:55:26.054Z,49.71
2022-11-15T14:57:55.779Z,50.30
2022-11-15T15:00:23.362Z,50.54
2022-11-15T15:02:54.467Z,50.81
2022-11-15T15:05:33.592Z,51.46
2022-11-15T15:08:01.025Z,51.90
2022-11-15T15:10:47.085Z,52.30
2022-11-15T15:13:24.590Z,52.14
2022-11-15T15:15:52.926Z,52.69
2022-11-15T15:18:21.199Z,53.16
2022-11-15T15:20:58.667Z,53.53
2022-11-15T15:23:27.993Z,53.38
2022-11-15T15:25:55.132Z,53.54
2022-11-15T15:28:22.404Z,53.94
2022-11-15T15:30:50.499Z,53.79
2022-11-15T15:33:17.703Z,54.23
2022-11-15T15:35:44.825Z,54.30
2022-11-15T15:38:16.432Z,54.41
2022-11-15T15:40:43.490Z,54.54
2022-11-15T15:43:10.571Z,54.52
2022-11-15T15:45:41.464Z,54.75
2022-11-15T15:48:16.879Z,55.42
2022-11-15T15:50:46.081Z,55.34
2022-11-15T15:53:14.262Z,55.67
2022-11-15T15:55:41.726Z,55.87
2022-11-15T15:58:09.429Z,55.89
2022-11-15T16:00:39.901Z,56.20
2022-11-15T16:03:06.977Z,56.18
2022-11-15T16:05:34.199Z,56.09
2022-11-15T16:08:01.229Z,56.18
2022-11-15T16:10:32.537Z,56.45
2022-11-15T16:12:59.640Z,56.53
2022-11-15T16:15:31.208Z,56.34
2022-11-15T16:18:00.629Z,56.54
2022-11-15T16:20:42.081Z,56.40
2022-11-15T16:23:12.137Z,56.57
2022-11-15T16:25:46.722Z,56.94
2022-11-15T16:28:32.886Z,57.12
2022-11-15T16:31:12.351Z,57.16
2022-11-15T16:33:41.156Z,57.11
2022-11-15T16:36:29.436Z,57.25
2022-11-15T16:38:58.491Z,57.08
2022-11-15T16:41:25.834Z,57.40
2022-11-15T16:43:53.034Z,57.45
2022-11-15T16:46:23.067Z,57.64
2022-11-15T16:48:51.369Z,57.55
2022-11-15T16:51:21.514Z,57.71
2022-11-15T16:53:50.016Z,57.58
2022-11-15T16:56:30.061Z,57.66
2022-11-15T16:58:59.178Z,57.97
2022-11-15T17:01:50.853Z,57.77
2022-11-15T17:04:22.624Z,57.90
2022-11-15T17:06:50.087Z,58.15
2022-11-15T17:09:23.627Z,58.44
2022-11-15T17:11:51.706Z,58.71
2022-11-15T17:14:19.316Z,58.52
2022-11-15T17:16:46.975Z,58.64
2022-11-15T17:19:14.526Z,58.49
2022-11-15T17:21:43.076Z,58.55
2022-11-15T17:24:10.788Z,58.59
2022-11-15T17:26:40.717Z,59.09
2022-11-15T17:29:09.277Z,58.84
2022-11-15T17:31:39.444Z,58.97
2022-11-15T17:34:07.665Z,59.12
2022-11-15T17:36:35.250Z,58.97
2022-11-15T17:39:04.121Z,59.27
2022-11-15T17:41:31.842Z,59.27
2022-11-15T17:44:00.537Z,59.36
2022-11-15T17:46:29.184Z,59.26
2022-11-15T17:48:57.576Z,59.22
2022-11-15T17:51:25.045Z,59.32
2022-11-15T17:53:52.971Z,59.35
2022-11-15T17:56:23.566Z,59.24
2022-11-15T17:58:58.735Z,59.33
2022-11-15T18:01:32.566Z,59.76
2022-11-15T18:04:02.207Z,59.73
2022-11-15T18:06:33.218Z,59.83
2022-11-15T18:09:01.957Z,59.98
2022-11-15T18:11:33.220Z,60.09
2022-11-15T18:14:04.809Z,59.99
2022-11-15T18:16:37.545Z,59.88
2022-11-15T18:19:09.062Z,60.03
2022-11-15T18:21:56.026Z,60.03
2022-11-15T18:24:35.495Z,60.29
2022-11-15T18:27:05.219Z,60.25
2022-11-15T18:29:34.708Z,60.25
2022-11-15T18:32:05.128Z,60.70
2022-11-15T18:34:34.075Z,60.88
2022-11-15T18:37:03.420Z,60.65
2022-11-15T18:39:30.683Z,60.38
2022-11-15T18:41:58.528Z,60.59
2022-11-15T18:44:25.758Z,60.85
2022-11-15T18:46:52.903Z,60.79
2022-11-15T18:49:20.492Z,60.58
2022-11-15T18:51:48.458Z,60.65
2022-11-15T18:54:17.071Z,60.71
2022-11-15T18:56:45.596Z,60.72
2022-11-15T18:59:13.946Z,61.06
2022-11-15T19:01:48.579Z,61.10
2022-11-15T19:04:20.703Z,61.00
2022-11-15T19:06:50.348Z,61.03
2022-11-15T19:09:19.607Z,60.77
2022-11-15T19:11:49.154Z,60.58
2022-11-15T19:14:18.350Z,60.49
2022-11-15T19:16:52.473Z,60.89
2022-11-15T19:19:23.536Z,60.77
2022-11-15T19:21:51.840Z,60.86
2022-11-15T19:24:18.893Z,61.10
2022-11-15T19:26:47.025Z,60.76
2022-11-15T19:29:18.300Z,60.63
2022-11-15T19:31:45.999Z,60.75
2022-11-15T19:34:13.143Z,60.72
2022-11-15T19:36:43.363Z,60.82
2022-11-15T19:39:13.382Z,61.10
2022-11-15T19:41:43.356Z,61.03
2022-11-15T19:44:13.049Z,60.86
2022-11-15T19:46:40.888Z,60.69
2022-11-15T19:49:10.599Z,61.17
2022-11-15T19:51:39.045Z,60.96
2022-11-15T19:54:08.947Z,60.93
2022-11-15T19:56:36.917Z,60.85
2022-11-15T19:59:05.233Z,61.17
2022-11-15T20:01:36.503Z,61.48
2022-11-15T20:04:04.238Z,61.36
2022-11-15T20:06:40.682Z,61.06
2022-11-15T20:09:11.548Z,61.16
2022-11-15T20:11:39.449Z,61.24
2022-11-15T20:14:08.948Z,61.15
2022-11-15T20:16:36.156Z,61.28
2022-11-15T20:19:03.290Z,61.12
2022-11-15T20:21:30.566Z,60.79
2022-11-15T20:23:58.016Z,60.93
2022-11-15T20:26:25.608Z,60.95
2022-11-15T20:28:53.044Z,60.80
2022-11-15T20:31:20.238Z,60.90
2022-11-15T20:33:47.327Z,60.89
2022-11-15T20:36:16.129Z,60.79
2022-11-15T20:38:45.127Z,60.79
2022-11-15T20:41:13.869Z,60.85
2022-11-15T20:43:43.684Z,60.67
2022-11-15T20:46:12.740Z,60.71
2022-11-15T20:48:40.391Z,60.86
2022-11-15T20:51:16.344Z,60.75
2022-11-15T20:53:45.120Z,60.85
2022-11-15T20:56:19.403Z,60.79
2022-11-15T20:58:47.515Z,60.89
2022-11-15T21:01:16.403Z,60.94
2022-11-15T21:03:43.828Z,61.08
2022-11-15T21:06:11.857Z,61.01
2022-11-15T21:09:07.910Z,60.88
2022-11-15T21:11:54.040Z,60.46
2022-11-15T21:14:21.760Z,60.68
2022-11-15T21:16:48.937Z,60.83
2022-11-15T21:19:16.125Z,60.94
2022-11-15T21:21:43.153Z,60.99
2022-11-15T21:24:11.113Z,60.92
2022-11-15T21:26:38.539Z,61.05
2022-11-15T21:29:05.975Z,61.08
2022-11-15T21:31:33.458Z,61.21
2022-11-15T21:34:07.267Z,61.32
2022-11-15T21:36:34.456Z,61.28
2022-11-15T21:39:01.708Z,61.18
2022-11-15T21:41:28.867Z,61.25
2022-11-15T21:44:03.977Z,61.34
2022-11-15T21:46:34.538Z,61.40
2022-11-15T21:49:01.612Z,61.48
2022-11-15T21:51:28.710Z,61.24
2022-11-15T21:53:56.604Z,61.28
2022-11-15T21:56:25.611Z,61.48
2022-11-15T21:58:54.330Z,61.36
2022-11-15T22:01:42.183Z,61.33
2022-11-15T22:04:09.856Z,61.03
2022-11-15T22:06:37.129Z,61.08
2022-11-15T22:09:05.969Z,61.05
2022-11-15T22:11:33.809Z,61.12
2022-11-15T22:14:01.581Z,61.17
2022-11-15T22:16:28.763Z,60.99
2022-11-15T22:18:56.048Z,61.13
2022-11-15T22:21:23.427Z,61.28
2022-11-15T22:23:51.355Z,61.38
2022-11-15T22:26:23.537Z,61.35
2022-11-15T22:28:51.248Z,61.49
2022-11-15T22:31:18.929Z,61.41
2022-11-15T22:33:46.160Z,61.52
2022-11-15T22:36:13.820Z,61.39
2022-11-15T22:38:41.043Z,61.26
2022-11-15T22:41:08.798Z,61.30
2022-11-15T22:43:36.073Z,61.00
2022-11-15T22:46:04.555Z,61.33
2022-11-15T22:48:36.347Z,61.03
2022-11-15T22:51:05.594Z,61.19
2022-11-15T22:53:33.254Z,61.09
2022-11-15T22:56:03.568Z,61.14
2022-11-15T22:58:34.552Z,61.07
2022-11-15T23:01:04.428Z,61.05
2022-11-15T23:03:33.743Z,61.27
2022-11-15T23:06:06.808Z,61.38
2022-11-15T23:08:34.510Z,61.37
2022-11-15T23:11:22.631Z,61.31
2022-11-15T23:13:53.203Z,61.46
2022-11-15T23:16:34.398Z,61.39
2022-11-15T23:19:12.431Z,61.43
2022-11-15T23:22:02.046Z,61.21
2022-11-15T23:24:29.835Z,61.38
2022-11-15T23:27:01.033Z,61.55
2022-11-15T23:29:29.626Z,61.48
2022-11-15T23:32:16.111Z,61.80
2022-11-15T23:34:45.625Z,61.92
2022-11-15T23:37:15.436Z,61.90
2022-11-15T23:39:42.721Z,62.05
2022-11-15T23:42:19.696Z,62.29
2022-11-15T23:44:50.538Z,62.22
2022-11-15T23:47:19.330Z,62.08
2022-11-15T23:49:46.565Z,62.33
2022-11-15T23:52:15.419Z,62.31
2022-11-15T23:54:43.104Z,62.42
2022-11-15T23:57:12.052Z,62.49
2022-11-15T23:59:41.213Z,62.47
